Latest Weather Observations for Tamworth Airport

IDN60801

Issued at 7:52 am EST Tuesday 21 August 2018 (issued every 10 minutes, with the page automatically refreshed every 10 minutes)

About weather observations | Map of weather stations | Latest weather observations for NSW | Other Formats
Station Details ID: 055325 Name: TAMWORTH AIRPORT AWS Lat: -31.07 Lon: 150.84 Height: 394.9 m
Data from the previous 72 hours. | See also: Recent months at Tamworth Airport
Date/Time
EST
Temp
°C
App
Temp
°C
Dew
Point
°C
Rel
Hum
%
Delta-T
°C
Wind Press
QNH
hPa
Press
MSL
hPa
Rain since
9am
mm
Dir  Spd
km/h
Gust
km/h
Spd
kts
Gust
kts
21/07:30am 2.5 -0.5 -4.7 59 2.4 E 2 7 1 4 1020.6 1020.8 0.0
21/07:00am -0.1 -3.5 -5.1 69 1.6 SE 4 7 2 4 1020.5 1020.7 0.0
21/06:30am -1.5 -5.4 -6.8 67 1.6 E 6 7 3 4 1020.4 1020.6 0.0
21/06:00am -1.4 -5.5 -6.7 67 1.6 ESE 7 9 4 5 1020.3 1020.5 0.0
21/05:30am -1.2 -5.1 -6.5 67 1.6 E 6 7 3 4 1020.1 1020.3 0.0
21/05:00am 0.2 -3.6 -6.0 63 2.0 E 6 7 3 4 1020.0 1020.2 0.0
21/04:30am 0.4 -3.7 -6.9 58 2.3 NE 7 11 4 6 1020.0 1020.2 0.0
21/04:00am 1.9 -2.9 -5.9 56 2.6 N 11 13 6 7 1020.1 1020.3 0.0
21/03:30am 2.8 -1.5 -5.3 55 2.7 N 9 13 5 7 1020.0 1020.2 0.0
21/03:00am 2.9 -1.1 -6.0 52 2.9 N 7 9 4 5 1020.2 1020.4 0.0
21/02:30am 2.4 -2.0 -5.9 54 2.8 N 9 11 5 6 1020.3 1020.5 0.0
21/02:00am 2.0 -1.9 -6.6 53 2.8 WNW 6 7 3 4 1020.4 1020.6 0.0
21/01:30am 1.9 -2.6 -6.6 53 2.8 NNE 9 13 5 7 1020.8 1020.9 0.0
21/01:00am 2.7 -1.8 -6.9 49 3.2 NNE 9 11 5 6 1021.0 1021.1 0.0
21/12:30am 2.0 -2.3 -8.4 46 3.3 NE 7 13 4 7 1021.1 1021.2 0.0
21/12:00am 3.1 -1.1 -8.2 43 3.7 NE 7 9 4 5 1021.1 1021.2 0.0
 
Date/Time
EST
Temp
°C
App
Temp
°C
Dew
Point
°C
Rel
Hum
%
Delta-T
°C
Wind Press
QNH
hPa
Press
MSL
hPa
Rain since
9am
mm
Dir  Spd
km/h
Gust
km/h
Spd
kts
Gust
kts
20/11:30pm 5.8 1.7 -7.1 39 4.2 N 7 11 4 6 1021.4 1021.5 0.0
20/11:00pm 5.7 1.1 -7.8 37 4.3 NNW 9 15 5 8 1021.3 1021.4 0.0
20/10:30pm 5.4 1.1 -8.4 36 4.4 NNW 7 9 4 5 1021.2 1021.3 0.0
20/10:00pm 5.0 0.7 -8.8 36 4.3 NNW 7 11 4 6 1021.3 1021.4 0.0
20/09:30pm 5.1 1.0 -9.1 35 4.4 WNW 6 11 3 6 1021.3 1021.4 0.0
20/09:00pm 6.1 0.6 -9.3 32 4.8 WSW 13 15 7 8 1021.0 1021.1 0.0
20/08:30pm 6.0 -0.6 -9.4 32 4.8 WSW 19 20 10 11 1020.6 1020.8 0.0
20/08:00pm 6.5 0.6 -9.4 31 5.0 WSW 15 15 8 8 1020.4 1020.6 0.0
20/07:30pm 7.0 1.1 -9.4 30 5.2 WSW 15 19 8 10 1020.3 1020.5 0.0
20/07:00pm 6.9 1.5 -8.2 33 4.9 WSW 13 17 7 9 1020.0 1020.2 0.0
20/06:30pm 7.5 2.1 -8.1 32 5.1 W 13 15 7 8 1019.5 1019.7 0.0
20/06:00pm 8.3 2.5 -8.7 29 5.6 W 15 17 8 9 1018.9 1019.0 0.0
20/05:30pm 11.5 5.7 -8.9 23 7.0 WNW 15 17 8 9 1018.8 1018.9 0.0
20/05:00pm 13.6 8.2 -8.3 21 7.7 W 13 19 7 10 1018.6 1018.7 0.0
20/04:30pm 14.7 9.4 -7.4 21 8.1 WSW 13 17 7 9 1018.6 1018.7 0.0
20/04:00pm 15.0 9.5 -9.1 18 8.5 WSW 13 19 7 10 1018.4 1018.5 0.0
20/03:30pm 14.7 7.8 -10.8 16 8.7 WSW 20 30 11 16 1018.5 1018.6 0.0
20/03:00pm 14.8 7.5 -10.7 16 8.7 SW 22 30 12 16 1018.7 1018.8 0.0
20/02:30pm 14.8 8.0 -9.3 18 8.5 WSW 20 32 11 17 1018.9 1019.0 0.0
20/02:00pm 14.4 6.8 -9.6 18 8.3 SW 24 33 13 18 1019.0 1019.1 0.0
20/01:30pm 14.0 7.3 -8.6 20 8.0 SW 20 30 11 16 1019.3 1019.5 0.0
20/01:00pm 13.2 7.2 -6.9 24 7.3 WSW 17 26 9 14 1019.5 1019.7 0.0
20/12:30pm 12.8 6.8 -6.2 26 7.0 SW 17 26 9 14 1019.8 1020.0 0.0
20/12:00pm 12.2 6.2 -6.7 26 6.8 SW 17 28 9 15 1020.3 1020.5 0.0
20/11:30am 10.7 6.4 -5.3 32 5.9 W 9 22 5 12 1020.9 1021.0 0.0
20/11:00am 10.2 5.4 -5.7 32 5.7 WNW 11 19 6 10 1021.4 1021.5 0.0
20/10:30am 10.0 4.9 -5.5 33 5.6 SW 13 22 7 12 1021.6 1021.8 0.0
20/10:00am 9.4 4.8 -3.8 39 4.9 W 11 17 6 9 1021.8 1022.0 0.0
20/09:30am 8.7 4.1 -3.8 41 4.6 WNW 11 17 6 9 1021.9 1022.1 0.0
20/09:00am 7.7 2.8 -3.8 44 4.2 NW 13 17 7 9 1021.9 1022.1 0.0
20/08:30am 6.8 1.2 -2.9 50 3.6 NNW 17 20 9 11 1021.8 1022.0 0.0
20/08:00am 5.3 -0.6 -2.3 58 2.8 NNW 19 24 10 13 1021.6 1021.8 0.0
20/07:30am 3.9 -1.6 -2.1 65 2.2 NNW 17 20 9 11 1021.4 1021.5 0.0
20/07:00am 2.4 -3.2 -2.5 70 1.7 N 17 24 9 13 1021.2 1021.3 0.0
20/06:30am 1.3 -3.9 -2.8 74 1.5 N 15 20 8 11 1020.5 1020.7 0.0
20/06:00am 0.8 -3.8 -4.0 70 1.7 N 11 15 6 8 1020.2 1020.4 0.0
20/05:30am -0.3 -4.6 -4.9 71 1.5 NW 9 11 5 6 1020.0 1020.2 0.0
20/05:00am 0.9 -2.3 -3.4 73 1.5 NNE 4 7 2 4 1019.8 1020.0 0.0
20/04:30am -1.0 -6.1 -5.6 71 1.4 WNW 13 15 7 8 1019.7 1019.9 0.0
20/04:00am 1.7 -2.5 -4.0 66 2.0 NW 9 11 5 6 1019.6 1019.8 0.0
20/03:30am 1.9 -2.2 -3.4 68 1.8 NW 9 11 5 6 1019.5 1019.7 0.0
20/03:00am 2.0 -1.2 -3.5 67 1.9 ENE 4 7 2 4 1019.5 1019.7 0.0
20/02:30am 1.4 -1.6 -4.9 63 2.2 NNE 2 6 1 3 1019.6 1019.8 0.0
20/02:00am 1.9 -2.0 -4.2 64 2.2 WNW 7 11 4 6 1019.8 1020.0 0.0
20/01:30am 2.5 -2.5 -4.2 61 2.3 W 13 17 7 9 1019.6 1019.8 0.0
20/01:00am 3.5 0.3 -3.7 59 2.5 WNW 4 9 2 5 1019.9 1020.1 0.0
20/12:30am 3.7 -0.5 -4.0 57 2.7 N 9 11 5 6 1020.0 1020.2 0.0
20/12:00am 5.8 0.5 -3.3 52 3.3 W 15 19 8 10 1019.8 1020.0 0.0
 
Date/Time
EST
Temp
°C
App
Temp
°C
Dew
Point
°C
Rel
Hum
%
Delta-T
°C
Wind Press
QNH
hPa
Press
MSL
hPa
Rain since
9am
mm
Dir  Spd
km/h
Gust
km/h
Spd
kts
Gust
kts
19/11:30pm 4.6 -0.4 -3.9 54 3.0 W 13 19 7 10 1020.0 1020.2 0.0
19/11:00pm 5.2 1.4 -4.1 51 3.3 WNW 7 9 4 5 1020.0 1020.2 0.0
19/10:30pm 5.9 0.9 -4.0 49 3.5 W 13 19 7 10 1019.9 1020.1 0.0
19/10:00pm 6.9 1.2 -3.9 46 3.9 W 17 26 9 14 1020.0 1020.2 0.0
19/09:30pm 7.7 1.0 -4.4 42 4.4 W 22 32 12 17 1019.7 1019.9 0.0
19/09:00pm 8.5 1.0 -4.3 40 4.7 WSW 26 33 14 18 1019.5 1019.7 0.0
19/08:30pm 9.2 0.5 -4.7 37 5.1 WSW 32 50 17 27 1019.5 1019.7 0.0
19/08:21pm 9.1 1.2 -4.8 37 5.1 WSW 28 46 15 25 1019.6 1019.8 0.0
19/08:00pm 9.0 0.7 -5.2 36 5.1 WSW 30 39 16 21 1019.2 1019.3 0.0
19/07:38pm 9.3 0.5 -5.7 34 5.4 WSW 32 50 17 27 1019.1 1019.2 0.0
19/07:30pm 9.4 0.0 -6.4 32 5.6 WSW 35 46 19 25 1019.0 1019.1 0.0
19/07:00pm 10.5 1.4 -6.8 29 6.1 WSW 33 46 18 25 1018.5 1018.6 0.0
19/06:33pm 10.9 1.5 -6.9 28 6.3 WSW 35 54 19 29 1018.0 1018.2 0.0
19/06:30pm 10.9 1.0 -7.3 27 6.4 WSW 37 54 20 29 1017.9 1018.1 0.0
19/06:00pm 11.3 1.9 -6.5 28 6.4 WSW 35 46 19 25 1017.5 1017.7 0.0
19/05:31pm 11.5 1.8 -5.9 29 6.4 WSW 37 56 20 30 1017.1 1017.3 0.0
19/05:30pm 11.4 1.6 -6.4 28 6.4 WSW 37 52 20 28 1017.1 1017.3 0.0
19/05:21pm 11.8 3.0 -6.6 27 6.6 WSW 32 52 17 28 1017.0 1017.1 0.0
19/05:00pm 11.8 3.0 -6.1 28 6.5 WSW 32 43 17 23 1016.8 1016.9 0.0
19/04:39pm 12.2 3.3 -5.3 29 6.5 W 33 52 18 28 1016.7 1016.8 0.0
19/04:30pm 12.7 3.0 -5.3 28 6.8 W 37 46 20 25 1016.6 1016.7 0.0
19/04:15pm 13.0 4.1 -5.5 27 6.9 W 33 52 18 28 1016.4 1016.5 0.0
19/04:00pm 13.0 4.3 -5.5 27 6.9 WSW 32 44 17 24 1016.3 1016.4 0.0
19/03:37pm 13.6 3.9 -5.5 26 7.2 W 37 56 20 30 1016.3 1016.4 0.0
19/03:30pm 13.7 4.8 -5.4 26 7.2 W 33 44 18 24 1016.2 1016.3 0.0
19/03:00pm 13.2 3.9 -5.4 27 7.0 WSW 35 67 19 36 1016.2 1016.3 0.0
19/02:58pm 13.9 4.9 -5.8 25 7.4 WSW 33 67 18 36 1016.1 1016.2 0.0
19/02:30pm 14.5 5.7 -4.7 26 7.5 W 33 46 18 25 1016.2 1016.3 0.0
19/02:00pm 14.0 4.0 -4.7 27 7.2 W 39 56 21 30 1016.3 1016.4 0.0
19/01:51pm 14.3 5.5 -3.9 28 7.2 WSW 33 52 18 28 1016.3 1016.4 0.0
19/01:30pm 14.2 5.6 -4.0 28 7.1 W 32 44 17 24 1016.3 1016.4 0.0
19/01:00pm 13.4 4.6 -4.7 28 6.9 W 33 52 18 28 1016.8 1016.9 0.0
19/12:39pm 12.7 4.6 -3.5 32 6.3 W 30 48 16 26 1017.1 1017.3 0.0
19/12:30pm 13.2 5.0 -4.0 30 6.7 W 30 46 16 25 1017.3 1017.5 0.0
19/12:03pm 12.3 4.1 -4.3 31 6.3 W 30 48 16 26 1017.9 1018.1 0.0
19/12:00pm 13.1 5.8 -2.8 33 6.3 W 26 39 14 21 1017.9 1018.1 0.0
19/11:30am 12.6 4.9 -2.8 34 6.1 W 28 39 15 21 1018.5 1018.6 0.0
19/11:00am 12.1 4.2 -1.8 38 5.6 W 30 54 16 29 1018.9 1019.0 0.0
19/10:54am 11.6 3.9 -2.9 36 5.7 W 28 54 15 29 1018.8 1018.9 0.0
19/10:30am 11.6 4.7 -2.6 37 5.6 W 24 41 13 22 1019.2 1019.3 0.0
19/10:00am 9.9 3.8 -2.4 42 4.8 WNW 20 32 11 17 1019.1 1019.2 0.0
19/09:30am 9.6 3.6 -1.7 45 4.5 W 20 32 11 17 1019.4 1019.6 0.0
19/09:00am 9.7 3.9 -1.6 45 4.5 W 19 28 10 15 1019.3 1019.5 0.0
19/08:30am 9.2 3.3 -0.9 49 4.0 W 20 26 11 14 1019.3 1019.5 0.0
19/08:00am 7.8 2.5 -0.9 54 3.4 W 17 32 9 17 1019.0 1019.1 0.0
19/07:30am 7.4 3.5 -1.5 53 3.4 NNW 9 13 5 7 1018.8 1018.9 0.0
19/07:00am 6.6 2.7 -1.5 56 3.1 N 9 17 5 9 1018.3 1018.4 0.0
19/06:30am 4.9 1.3 -2.2 60 2.6 NE 7 11 4 6 1017.8 1018.0 0.0
19/06:00am 4.1 0.0 -3.2 59 2.6 N 9 11 5 6 1017.3 1017.5 0.0
19/05:30am 4.4 0.3 -2.7 60 2.6 NE 9 13 5 7 1017.1 1017.3 0.0
19/05:00am 4.3 0.3 -2.5 61 2.5 NE 9 13 5 7 1016.9 1017.0 0.0
19/04:30am 4.9 0.2 -2.0 61 2.6 NNE 13 15 7 8 1016.7 1016.8 0.0
19/04:00am 4.4 0.4 -2.2 62 2.4 ENE 9 13 5 7 1016.4 1016.5 0.0
19/03:30am 4.9 1.5 -2.4 59 2.7 N 6 9 3 5 1016.3 1016.4 0.0
19/03:00am 5.1 1.4 -3.2 55 3.0 N 7 9 4 5 1016.2 1016.3 0.0
19/02:30am 6.1 2.4 -2.7 53 3.3 WNW 7 11 4 6 1016.2 1016.3 0.0
19/02:00am 6.8 1.6 -2.6 51 3.5 W 15 20 8 11 1016.3 1016.4 0.0
19/01:30am 7.5 2.0 -2.0 51 3.6 W 17 20 9 11 1016.2 1016.3 0.0
19/01:00am 7.2 3.2 -2.2 51 3.6 W 9 15 5 8 1016.3 1016.4 0.0
19/12:30am 7.4 3.0 -2.3 50 3.7 WNW 11 15 6 8 1016.3 1016.4 0.0
19/12:00am 9.3 4.6 -1.7 46 4.3 W 13 15 7 8 1016.1 1016.2 0.0
 
Date/Time
EST
Temp
°C
App
Temp
°C
Dew
Point
°C
Rel
Hum
%
Delta-T
°C
Wind Press
QNH
hPa
Press
MSL
hPa
Rain since
9am
mm
Dir  Spd
km/h
Gust
km/h
Spd
kts
Gust
kts
18/11:30pm 10.1 5.6 -0.1 49 4.2 WSW 13 17 7 9 1016.0 1016.1 0.0
18/11:00pm 11.4 6.2 0.2 46 4.7 WSW 17 24 9 13 1015.9 1016.0 0.0
18/10:30pm 12.6 6.4 0.0 42 5.3 SW 22 33 12 18 1015.7 1015.8 0.0
18/10:00pm 13.4 6.2 -1.7 35 6.2 SW 26 32 14 17 1015.2 1015.4 0.0
18/09:30pm 13.6 7.5 -2.3 33 6.4 WSW 20 28 11 15 1014.9 1015.0 0.0
18/09:00pm 12.6 7.4 -2.8 34 6.1 W 15 19 8 10 1014.7 1014.8 0.0
18/08:30pm 13.6 8.3 -3.6 30 6.8 NW 15 17 8 9 1014.3 1014.4 0.0
18/08:00pm 13.6 8.2 -4.1 29 6.9 NW 15 19 8 10 1014.1 1014.2 0.0
18/07:30pm 12.9 8.0 -3.8 31 6.5 NNW 13 15 7 8 1014.0 1014.1 0.0
18/07:00pm 13.4 8.1 -3.8 30 6.7 NW 15 17 8 9 1013.8 1013.9 0.0
18/06:30pm 13.6 7.9 -4.1 29 6.9 WNW 17 20 9 11 1013.7 1013.8 0.0
18/06:00pm 15.9 10.2 -4.1 25 8.0 WNW 17 24 9 13 1013.5 1013.6 0.0
18/05:30pm 16.7 10.5 -4.5 23 8.5 WNW 19 26 10 14 1013.3 1013.4 0.0
18/05:00pm 17.9 10.0 -4.7 21 9.1 WNW 28 35 15 19 1013.2 1013.3 0.0
18/04:30pm 19.2 11.3 -5.0 19 9.8 WNW 28 41 15 22 1012.9 1013.0 0.0
18/04:00pm 19.6 11.7 -4.6 19 9.9 NW 28 41 15 22 1012.8 1012.8 0.0
18/03:30pm 19.9 11.3 -4.4 19 10.0 WNW 32 43 17 23 1012.8 1012.8 0.0
18/03:00pm 20.0 11.1 -5.0 18 10.2 NW 33 52 18 28 1012.6 1012.7 0.0
18/02:30pm 19.5 10.9 -4.0 20 9.7 NW 32 48 17 26 1013.0 1013.1 0.0
18/02:29pm 19.9 11.8 -3.0 21 9.7 NW 30 48 16 26 1013.1 1013.2 0.0
18/02:00pm 19.7 11.2 -3.2 21 9.7 W 32 46 17 25 1013.5 1013.6 0.0
18/01:30pm 19.3 10.8 -2.9 22 9.4 WNW 32 52 17 28 1013.8 1013.9 0.0
18/01:27pm 19.5 11.0 -3.4 21 9.6 WNW 32 52 17 28 1013.8 1013.9 0.0
18/01:00pm 18.9 10.5 -2.1 24 9.0 WNW 32 43 17 23 1014.3 1014.4 0.0
18/12:35pm 18.5 10.8 -3.0 23 9.0 WNW 28 48 15 26 1014.9 1015.0 0.0
18/12:30pm 18.6 11.7 -2.3 24 8.9 WNW 24 48 13 26 1015.0 1015.2 0.0
18/12:00pm 18.0 11.1 -2.3 25 8.6 NW 24 32 13 17 1015.7 1015.8 0.0
18/11:30am 16.9 10.1 -2.2 27 8.0 NW 24 44 13 24 1016.4 1016.5 0.0
18/11:00am 16.3 10.3 -2.7 27 7.8 NNW 19 30 10 16 1016.8 1016.9 0.0
18/10:30am 14.2 9.9 -1.8 33 6.6 WNW 11 15 6 8 1017.4 1017.6 0.0
18/10:00am 13.1 10.1 -2.0 35 6.1 N 4 11 2 6 1017.7 1017.9 0.0
18/09:30am 10.8 8.2 -1.9 41 5.0 E 2 9 1 5 1018.0 1018.2 0.0
18/09:00am 8.8 5.2 -2.2 46 4.2 SE 7 11 4 6 1018.3 1018.4 0.0
18/08:30am 7.1 3.6 -1.3 55 3.3 SE 7 11 4 6 1018.4 1018.5 0.0
18/08:00am 5.2 1.6 -2.1 59 2.7 SE 7 11 4 6 1018.2 1018.3 0.0

Other Formats:

Comma delimited format used in spreadsheet applications
http://www.bom.gov.au/fwo/IDN60801/IDN60801.95762.axf

JavaScript Object Notation format (JSON) in row-major order
http://www.bom.gov.au/fwo/IDN60801/IDN60801.95762.json